Airport View

Enter AWOS ICAO identifier for current METAR.

ex. KFNL

KFWS 051355Z 00000KT 10SM CLR 26/21 A3003

5 Aug 2020 14:16

Frequency: 120.025

Phone: 817-426-4172

Other Area AWOS: KGKY - KNFW - KCPT - KGPM

TAF KGKY 051120Z 0512/0612 09006KT P6SM BKN110 FM051500 04010KT P6SM VCTS BKN100CB FM051800 13009KT P6SM SCT100